Time;durP1;ratioP1;P1;durP2;ratioP2;P2;SDS_P1;SDS_P2;PMS_P1;PMS_P2;Temp;Humidity;BMP_temperature;BMP_pressure;BME280_temperature;BME280_humidity;BME280_pressure;Samples;Min_cycle;Max_cycle;Signal;HPM_P1;HPM_P2
2022/05/22 00:01:48;;;;;;;9.95;6.10;;;16.20;99.90;;;;;;5069075;28;20455;-69
2022/05/22 00:04:13;;;;;;;8.85;5.43;;;16.10;99.90;;;;;;5074582;28;20496;-69
2022/05/22 00:06:39;;;;;;;14.43;5.82;;;16.20;99.90;;;;;;5073021;28;20111;-69
2022/05/22 00:09:05;;;;;;;8.77;5.53;;;16.20;99.90;;;;;;5077566;28;20031;-69
2022/05/22 00:11:30;;;;;;;8.55;5.00;;;16.10;99.90;;;;;;5068089;28;20103;-69
2022/05/22 00:13:56;;;;;;;7.80;5.63;;;16.00;99.90;;;;;;5071165;28;20591;-69
2022/05/22 00:16:37;;;;;;;11.27;6.22;;;16.10;99.90;;;;;;5070679;28;20393;-69
2022/05/22 00:19:07;;;;;;;14.23;6.22;;;16.10;99.90;;;;;;5077335;28;20032;-69
2022/05/22 00:21:34;;;;;;;8.80;5.35;;;16.00;99.90;;;;;;5070150;28;20059;-69
2022/05/22 00:23:59;;;;;;;10.30;5.40;;;16.00;99.90;;;;;;5078793;28;20362;-69
2022/05/22 00:26:25;;;;;;;13.32;7.28;;;15.90;99.90;;;;;;5069287;28;20031;-70
2022/05/22 00:28:51;;;;;;;12.70;6.22;;;15.90;99.90;;;;;;5077601;28;20035;-69
2022/05/22 00:31:17;;;;;;;8.95;6.10;;;15.90;99.90;;;;;;5076321;28;20023;-69
2022/05/22 00:33:43;;;;;;;10.27;5.55;;;15.90;99.90;;;;;;5078416;28;20059;-70
2022/05/22 00:36:09;;;;;;;10.68;6.60;;;15.90;99.90;;;;;;5074123;28;20082;-69
2022/05/22 00:38:34;;;;;;;12.20;6.32;;;15.90;99.90;;;;;;5083242;28;20021;-69
2022/05/22 00:41:00;;;;;;;11.43;6.65;;;15.80;99.90;;;;;;5075159;28;20377;-69
2022/05/22 00:43:34;;;;;;;13.13;7.30;;;15.80;99.90;;;;;;5072246;28;20435;-69
2022/05/22 00:46:01;;;;;;;14.90;7.30;;;15.80;99.90;;;;;;5074952;28;20048;-69
2022/05/22 00:48:28;;;;;;;14.80;7.30;;;15.70;99.90;;;;;;5075352;28;20024;-69
2022/05/22 00:51:00;;;;;;;13.45;6.80;;;15.70;99.90;;;;;;5074844;28;20024;-69
2022/05/22 00:53:29;;;;;;;12.80;6.82;;;15.70;99.90;;;;;;5070803;28;20029;-69
2022/05/22 00:55:56;;;;;;;14.93;7.80;;;15.70;99.90;;;;;;5068171;28;20502;-69
2022/05/22 00:58:25;;;;;;;12.77;6.43;;;15.60;99.90;;;;;;5073084;28;20063;-69
2022/05/22 01:00:51;;;;;;;11.27;7.07;;;15.60;99.90;;;;;;5073880;28;20051;-69
2022/05/22 01:03:27;;;;;;;13.18;6.13;;;15.50;99.90;;;;;;5078193;28;20097;-69
2022/05/22 01:06:00;;;;;;;9.20;6.20;;;15.50;99.90;;;;;;5070060;28;20032;-69
2022/05/22 01:08:25;;;;;;;8.85;5.93;;;15.50;99.90;;;;;;5069573;28;20526;-69
2022/05/22 01:10:57;;;;;;;10.75;6.90;;;15.40;99.90;;;;;;5074788;28;20025;-69
2022/05/22 01:13:29;;;;;;;11.50;6.82;;;15.40;99.90;;;;;;5062559;28;20032;-69
2022/05/22 01:15:54;;;;;;;10.88;7.18;;;15.40;99.90;;;;;;5065663;28;20070;-69
2022/05/22 01:18:20;;;;;;;9.13;6.53;;;15.40;99.90;;;;;;5062444;28;20029;-69
2022/05/22 01:20:51;;;;;;;10.48;6.45;;;15.40;99.90;;;;;;5066298;28;20072;-70
2022/05/22 01:23:18;;;;;;;10.30;5.03;;;15.30;99.90;;;;;;5065829;28;20061;-69
2022/05/22 01:25:44;;;;;;;9.18;4.95;;;15.30;99.90;;;;;;5063378;28;20029;-69
2022/05/22 01:28:12;;;;;;;9.35;5.75;;;15.40;99.90;;;;;;5066296;28;20032;-69
2022/05/22 01:30:38;;;;;;;9.48;6.35;;;15.30;99.90;;;;;;5061842;28;20062;-69
2022/05/22 01:33:04;;;;;;;9.85;5.75;;;15.30;99.90;;;;;;5064335;28;20051;-69
2022/05/22 01:35:31;;;;;;;13.68;6.97;;;15.30;99.90;;;;;;5063562;28;20020;-69
2022/05/22 01:37:57;;;;;;;11.38;6.60;;;15.20;99.90;;;;;;5063675;28;20021;-69
2022/05/22 01:40:23;;;;;;;14.60;7.40;;;15.20;99.90;;;;;;5067024;28;20028;-69
2022/05/22 01:42:49;;;;;;;11.95;7.60;;;15.20;99.90;;;;;;5063970;28;20043;-69
2022/05/22 01:45:22;;;;;;;13.68;6.95;;;15.20;99.90;;;;;;5062977;28;20024;-69
2022/05/22 01:47:48;;;;;;;14.73;8.20;;;15.20;99.90;;;;;;5065570;28;20040;-69
2022/05/22 01:50:14;;;;;;;18.83;9.52;;;15.10;99.90;;;;;;5066417;28;20029;-69
2022/05/22 01:52:40;;;;;;;12.88;8.65;;;15.00;99.90;;;;;;5064723;28;20484;-69
2022/05/22 01:55:08;;;;;;;13.15;8.50;;;15.00;99.90;;;;;;5063559;28;20030;-69
2022/05/22 01:57:33;;;;;;;10.63;7.53;;;15.00;99.90;;;;;;5064463;28;20033;-69
2022/05/22 01:59:59;;;;;;;16.20;9.23;;;15.00;99.90;;;;;;5063970;28;20020;-69
2022/05/22 02:02:25;;;;;;;17.52;9.57;;;15.00;99.90;;;;;;5066094;28;20366;-69
2022/05/22 02:04:50;;;;;;;13.93;8.98;;;15.00;99.90;;;;;;5060692;28;20017;-69
2022/05/22 02:10:00;;;;;;;14.80;8.90;;;15.00;99.90;;;;;;5059946;28;20036;-69
2022/05/22 02:12:26;;;;;;;17.02;9.38;;;15.00;99.90;;;;;;5068294;28;20028;-69
2022/05/22 02:14:52;;;;;;;19.15;10.90;;;14.90;99.90;;;;;;5069297;28;20112;-69
2022/05/22 02:17:18;;;;;;;14.65;9.35;;;14.90;99.90;;;;;;5065887;28;20021;-69
2022/05/22 02:19:43;;;;;;;17.70;9.65;;;14.90;99.90;;;;;;5061452;28;20064;-69
2022/05/22 02:22:09;;;;;;;16.95;9.02;;;14.90;99.90;;;;;;5061970;28;20029;-69
2022/05/22 02:24:34;;;;;;;18.17;10.13;;;14.90;99.90;;;;;;5064326;28;20381;-68
2022/05/22 02:27:06;;;;;;;16.67;10.60;;;14.90;99.90;;;;;;5062502;28;20089;-69
2022/05/22 02:29:32;;;;;;;15.57;10.45;;;14.70;99.90;;;;;;5062581;28;20027;-69
2022/05/22 02:31:57;;;;;;;18.15;10.23;;;14.70;99.90;;;;;;5071432;28;20059;-69
2022/05/22 02:34:23;;;;;;;17.55;11.02;;;14.70;99.90;;;;;;5065763;28;20500;-69
2022/05/22 02:36:49;;;;;;;15.27;9.25;;;14.70;99.90;;;;;;5066748;28;20495;-69
2022/05/22 02:39:15;;;;;;;19.67;9.65;;;14.70;99.90;;;;;;5064529;28;20048;-69
2022/05/22 02:41:41;;;;;;;17.63;10.02;;;14.60;99.90;;;;;;5065281;28;20083;-69
2022/05/22 02:44:06;;;;;;;10.35;7.28;;;14.60;99.90;;;;;;5065822;28;20020;-69
2022/05/22 02:46:32;;;;;;;13.32;8.45;;;14.60;99.90;;;;;;5069395;28;20036;-69
2022/05/22 02:48:57;;;;;;;13.10;8.45;;;14.60;99.90;;;;;;5071895;28;20380;-69
2022/05/22 02:51:23;;;;;;;16.58;10.00;;;14.60;99.90;;;;;;5067436;28;20076;-68
2022/05/22 02:53:49;;;;;;;13.65;8.88;;;14.60;99.90;;;;;;5068419;28;20036;-69
2022/05/22 02:56:18;;;;;;;9.95;8.88;;;14.50;99.90;;;;;;5076028;28;20028;-69
2022/05/22 02:58:43;;;;;;;17.10;10.35;;;14.50;99.90;;;;;;5078268;28;20031;-69
2022/05/22 03:01:09;;;;;;;18.65;9.98;;;14.50;99.90;;;;;;5076516;28;20507;-68
2022/05/22 03:03:35;;;;;;;14.90;9.20;;;14.50;99.90;;;;;;5078012;28;20149;-69
2022/05/22 03:08:45;;;;;;;21.67;11.45;;;14.50;99.90;;;;;;5073675;28;20509;-69
2022/05/22 03:11:11;;;;;;;16.98;10.80;;;14.50;99.90;;;;;;5075591;28;20029;-69
2022/05/22 03:13:37;;;;;;;14.65;10.25;;;14.50;99.90;;;;;;5072707;28;20029;-69
2022/05/22 03:16:03;;;;;;;11.52;9.25;;;14.50;99.90;;;;;;5072940;28;20036;-68
2022/05/22 03:18:29;;;;;;;17.23;11.90;;;14.50;99.90;;;;;;5077191;28;20173;-69
2022/05/22 03:20:55;;;;;;;20.08;12.18;;;14.40;99.90;;;;;;5069905;28;20477;-69
2022/05/22 03:23:20;;;;;;;20.42;12.60;;;14.30;99.90;;;;;;5071939;28;20035;-69
2022/05/22 03:25:46;;;;;;;12.77;10.45;;;14.20;99.90;;;;;;5073098;28;20028;-69
2022/05/22 03:28:13;;;;;;;20.42;11.23;;;14.20;99.90;;;;;;5073844;28;20025;-69
2022/05/22 03:30:39;;;;;;;17.23;9.50;;;14.30;99.90;;;;;;5073656;28;20028;-68
2022/05/22 03:33:05;;;;;;;14.35;9.90;;;14.30;99.90;;;;;;5074199;28;20086;-69
2022/05/22 03:35:31;;;;;;;13.93;10.02;;;14.30;99.90;;;;;;5073055;28;20021;-69
2022/05/22 03:37:57;;;;;;;19.92;10.18;;;14.30;99.90;;;;;;5073385;28;20039;-68
2022/05/22 03:40:22;;;;;;;15.75;10.40;;;14.30;99.90;;;;;;5071567;28;20090;-68
2022/05/22 03:42:48;;;;;;;17.45;11.10;;;14.30;99.90;;;;;;5069190;28;20047;-68
2022/05/22 03:45:14;;;;;;;17.08;12.25;;;14.20;99.90;;;;;;5076700;28;20035;-68
2022/05/22 03:47:40;;;;;;;14.80;10.10;;;14.10;99.90;;;;;;5070195;28;20376;-68
2022/05/22 03:50:08;;;;;;;19.08;11.57;;;14.00;99.90;;;;;;5076141;28;20490;-68
2022/05/22 03:52:36;;;;;;;15.50;10.75;;;14.00;99.90;;;;;;5071280;28;20489;-69
2022/05/22 03:55:04;;;;;;;21.63;10.10;;;13.90;99.90;;;;;;5075005;28;20024;-68
2022/05/22 03:57:30;;;;;;;16.27;11.07;;;14.00;99.90;;;;;;5075978;28;20031;-68
2022/05/22 03:59:56;;;;;;;20.60;11.73;;;14.00;99.90;;;;;;5076100;28;20020;-69
2022/05/22 04:02:21;;;;;;;14.10;10.90;;;14.00;99.90;;;;;;5070378;28;20400;-69
2022/05/22 04:04:47;;;;;;;17.58;11.73;;;14.00;99.90;;;;;;5071522;28;20035;-68
2022/05/22 04:07:15;;;;;;;19.95;11.70;;;13.90;99.90;;;;;;5070674;28;20036;-69
2022/05/22 04:09:41;;;;;;;19.33;12.27;;;13.80;99.90;;;;;;5075508;28;20025;-69
2022/05/22 04:12:08;;;;;;;13.25;11.07;;;13.80;99.90;;;;;;5070181;28;20013;-69
2022/05/22 04:14:34;;;;;;;14.77;10.80;;;13.60;99.90;;;;;;5074997;28;20020;-68
2022/05/22 04:16:59;;;;;;;16.30;11.10;;;13.70;99.90;;;;;;5070769;28;20480;-68
2022/05/22 04:19:25;;;;;;;16.10;11.70;;;13.70;99.90;;;;;;5071016;28;20024;-69
2022/05/22 04:21:51;;;;;;;16.90;12.13;;;13.70;99.90;;;;;;5073610;28;20082;-69
2022/05/22 04:27:05;;;;;;;15.85;12.25;;;13.80;99.90;;;;;;5072076;28;20043;-69
2022/05/22 04:29:33;;;;;;;17.90;11.45;;;13.90;99.90;;;;;;5071382;28;20083;-69
2022/05/22 04:31:58;;;;;;;14.13;11.30;;;13.90;99.90;;;;;;5065496;28;20518;-69
2022/05/22 04:34:24;;;;;;;18.15;10.95;;;13.90;99.90;;;;;;5075580;28;20107;-70
2022/05/22 04:36:50;;;;;;;15.70;11.52;;;13.90;99.90;;;;;;5068851;28;20048;-68
2022/05/22 04:39:16;;;;;;;18.20;11.63;;;13.90;99.90;;;;;;5073457;28;20064;-69
2022/05/22 04:41:41;;;;;;;18.80;12.63;;;13.90;99.90;;;;;;5069165;28;20077;-70
2022/05/22 04:44:07;;;;;;;16.67;12.18;;;13.90;99.90;;;;;;5068826;28;20040;-69
2022/05/22 04:46:34;;;;;;;15.07;11.77;;;13.90;99.90;;;;;;5070960;28;20016;-68
2022/05/22 04:49:00;;;;;;;19.50;12.15;;;13.90;99.90;;;;;;5066427;28;20025;-68
2022/05/22 04:51:25;;;;;;;16.05;11.60;;;14.00;99.90;;;;;;5067439;28;20112;-69
2022/05/22 04:53:51;;;;;;;16.58;13.10;;;14.00;99.90;;;;;;5066720;28;20116;-68
2022/05/22 04:56:17;;;;;;;15.02;11.70;;;14.00;99.90;;;;;;5069625;28;20031;-68
2022/05/22 04:58:43;;;;;;;21.50;13.25;;;14.10;99.90;;;;;;5068937;28;20056;-69
2022/05/22 05:01:10;;;;;;;18.77;12.60;;;14.10;99.90;;;;;;5062033;28;20067;-68
2022/05/22 05:03:36;;;;;;;16.35;11.23;;;14.10;99.90;;;;;;5063678;28;20035;-69
2022/05/22 05:06:03;;;;;;;14.40;11.15;;;14.10;99.90;;;;;;5074069;28;20028;-69
2022/05/22 05:08:32;;;;;;;15.80;11.75;;;14.10;99.90;;;;;;5068884;28;20034;-70
2022/05/22 05:10:59;;;;;;;14.50;11.40;;;14.20;99.90;;;;;;5068760;28;20037;-70
2022/05/22 05:13:26;;;;;;;15.45;11.68;;;14.20;99.90;;;;;;5074804;28;20032;-69
2022/05/22 05:16:09;;;;;;;23.13;11.70;;;14.20;99.90;;;;;;5072803;28;20032;-70
2022/05/22 05:18:36;;;;;;;13.90;10.90;;;14.20;99.90;;;;;;5068206;28;20099;-70
2022/05/22 05:21:06;;;;;;;14.73;11.52;;;14.30;99.90;;;;;;5068443;28;20459;-69
2022/05/22 05:23:31;;;;;;;17.77;12.02;;;14.30;99.90;;;;;;5074908;28;20024;-70
2022/05/22 05:25:58;;;;;;;15.27;11.75;;;14.40;99.90;;;;;;5067914;28;20098;-69
2022/05/22 05:28:25;;;;;;;16.15;10.30;;;14.40;99.90;;;;;;5071204;28;20032;-69
2022/05/22 05:30:50;;;;;;;14.43;11.43;;;14.40;99.90;;;;;;5067785;28;20028;-69
2022/05/22 05:33:16;;;;;;;15.30;10.57;;;14.50;99.90;;;;;;5073517;28;20029;-69
2022/05/22 05:35:42;;;;;;;20.10;11.32;;;14.50;99.90;;;;;;5071348;28;20465;-69
2022/05/22 05:38:08;;;;;;;18.83;11.30;;;14.50;99.90;;;;;;5071666;28;20032;-69
2022/05/22 05:40:34;;;;;;;16.52;11.57;;;14.60;99.90;;;;;;5071593;28;20044;-69
2022/05/22 05:43:00;;;;;;;16.60;11.18;;;14.60;99.90;;;;;;5074224;28;20108;-69
2022/05/22 05:45:25;;;;;;;17.80;13.00;;;14.70;99.90;;;;;;5073320;28;20182;-70
2022/05/22 05:47:51;;;;;;;17.55;13.95;;;14.70;99.90;;;;;;5074487;28;20085;-69
2022/05/22 05:50:21;;;;;;;18.90;14.35;;;14.70;99.90;;;;;;5074120;28;20025;-70
2022/05/22 05:52:51;;;;;;;26.23;14.48;;;14.70;99.90;;;;;;5073601;28;20491;-69
2022/05/22 05:55:17;;;;;;;23.02;15.48;;;14.70;99.90;;;;;;5071233;28;20021;-69
2022/05/22 05:57:43;;;;;;;27.58;15.93;;;14.80;99.90;;;;;;5075006;28;20027;-69
2022/05/22 06:00:11;;;;;;;22.45;13.98;;;14.70;99.90;;;;;;5072823;28;20025;-69
2022/05/22 06:02:37;;;;;;;30.13;16.52;;;14.70;99.90;;;;;;5072419;28;20484;-69
2022/05/22 06:05:03;;;;;;;22.30;14.50;;;14.70;99.90;;;;;;5072398;28;20025;-69
2022/05/22 06:07:29;;;;;;;24.75;15.35;;;14.80;99.90;;;;;;5070257;28;20032;-70
2022/05/22 06:09:55;;;;;;;25.95;15.02;;;14.80;99.90;;;;;;5075422;28;20027;-70
2022/05/22 06:12:21;;;;;;;23.60;17.75;;;15.00;99.90;;;;;;5072396;28;20024;-69
2022/05/22 06:14:47;;;;;;;25.92;18.77;;;15.10;99.90;;;;;;5062683;28;20047;-70
2022/05/22 06:17:13;;;;;;;27.63;18.48;;;15.20;99.90;;;;;;5058004;28;20099;-69
2022/05/22 06:19:55;;;;;;;23.00;16.23;;;15.20;99.90;;;;;;5061730;28;20025;-70
2022/05/22 06:22:22;;;;;;;25.35;15.50;;;15.30;99.90;;;;;;5063058;28;20037;-70
2022/05/22 06:24:49;;;;;;;24.63;15.80;;;15.30;99.90;;;;;;5065621;28;20102;-70
2022/05/22 06:27:15;;;;;;;24.98;16.42;;;15.40;99.90;;;;;;5065017;28;20027;-70
2022/05/22 06:29:42;;;;;;;25.55;16.65;;;15.30;99.90;;;;;;5067920;28;20032;-70
2022/05/22 06:32:11;;;;;;;22.40;15.43;;;15.40;99.90;;;;;;5075288;28;20040;-70
2022/05/22 06:34:41;;;;;;;22.35;16.80;;;15.50;99.90;;;;;;5074178;28;20044;-69
2022/05/22 06:37:08;;;;;;;23.20;15.82;;;15.60;99.90;;;;;;5065729;28;20032;-70
2022/05/22 06:39:50;;;;;;;21.67;15.48;;;15.70;99.90;;;;;;5069867;28;20025;-70
2022/05/22 06:42:42;;;;;;;24.17;14.10;;;15.70;99.90;;;;;;5070031;28;20036;-69
2022/05/22 06:45:19;;;;;;;22.45;14.32;;;15.80;99.90;;;;;;5068723;28;20017;-70
2022/05/22 06:47:45;;;;;;;18.63;13.40;;;16.00;99.90;;;;;;5066689;28;20094;-70
2022/05/22 06:50:15;;;;;;;17.38;11.27;;;16.10;99.90;;;;;;5065215;28;20024;-70
2022/05/22 06:52:41;;;;;;;20.63;12.02;;;16.20;99.90;;;;;;5077175;28;20492;-70
2022/05/22 06:55:08;;;;;;;17.40;12.30;;;16.30;99.90;;;;;;5074830;28;20028;-69
2022/05/22 06:57:35;;;;;;;25.90;12.50;;;16.40;99.90;;;;;;5075581;28;20086;-70
2022/05/22 07:00:01;;;;;;;19.55;11.95;;;16.50;99.90;;;;;;5075521;28;20024;-70
2022/05/22 07:02:27;;;;;;;14.25;10.77;;;16.50;99.90;;;;;;5075933;28;20036;-70
2022/05/22 07:04:56;;;;;;;18.33;11.52;;;16.70;99.90;;;;;;5076677;28;20106;-69
2022/05/22 07:07:22;;;;;;;21.65;12.32;;;16.90;99.90;;;;;;5074602;28;20028;-70
2022/05/22 07:09:48;;;;;;;21.33;11.38;;;17.00;99.90;;;;;;5077202;28;20092;-70
2022/05/22 07:12:15;;;;;;;19.13;11.65;;;17.10;99.90;;;;;;5076005;28;20051;-70
2022/05/22 07:14:42;;;;;;;17.83;9.68;;;17.20;99.90;;;;;;5076549;28;20497;-70
2022/05/22 07:17:09;;;;;;;15.10;9.13;;;17.40;99.90;;;;;;5077445;28;20051;-70
2022/05/22 07:19:37;;;;;;;16.70;8.77;;;17.50;99.90;;;;;;5075960;28;20021;-70
2022/05/22 07:22:04;;;;;;;16.73;10.15;;;17.70;99.90;;;;;;5069344;28;20499;-70
2022/05/22 07:24:30;;;;;;;13.20;7.43;;;17.80;99.90;;;;;;5075170;28;20012;-70
2022/05/22 07:26:56;;;;;;;16.17;6.97;;;18.00;99.90;;;;;;5076190;28;20604;-71
2022/05/22 07:29:22;;;;;;;14.35;6.40;;;18.00;99.90;;;;;;5076721;28;20031;-70
2022/05/22 07:31:47;;;;;;;12.10;6.15;;;18.20;99.90;;;;;;5075743;28;20031;-70
2022/05/22 07:34:13;;;;;;;12.82;5.47;;;18.30;99.90;;;;;;5076138;28;20021;-70
2022/05/22 07:36:38;;;;;;;12.43;6.05;;;18.40;99.90;;;;;;5077374;28;20054;-71
2022/05/22 07:39:05;;;;;;;11.93;6.07;;;18.50;99.90;;;;;;5070268;28;20021;-70
2022/05/22 07:41:31;;;;;;;12.98;5.80;;;18.60;99.90;;;;;;5076179;28;20048;-70
2022/05/22 07:43:58;;;;;;;9.63;5.75;;;18.60;99.90;;;;;;5073127;28;20028;-71
2022/05/22 07:46:24;;;;;;;10.05;4.63;;;18.60;99.90;;;;;;5075958;28;20058;-71
2022/05/22 07:48:50;;;;;;;14.23;4.88;;;18.70;99.90;;;;;;5076956;28;20032;-70
2022/05/22 07:51:16;;;;;;;8.70;4.45;;;18.70;99.90;;;;;;5076835;28;20084;-71
2022/05/22 07:53:42;;;;;;;10.77;3.70;;;18.80;99.90;;;;;;5075214;28;20063;-70
2022/05/22 07:56:08;;;;;;;8.82;4.00;;;18.80;99.90;;;;;;5075714;28;20025;-71
2022/05/22 07:58:34;;;;;;;12.88;5.35;;;18.90;99.90;;;;;;5088153;28;20029;-70
2022/05/22 08:01:00;;;;;;;10.52;4.70;;;19.10;99.90;;;;;;5076863;28;20028;-70
2022/05/22 08:03:26;;;;;;;10.32;3.80;;;19.30;99.90;;;;;;5074938;28;20045;-71
2022/05/22 08:05:53;;;;;;;11.57;4.75;;;19.30;99.90;;;;;;5076061;28;20063;-71
2022/05/22 08:08:20;;;;;;;17.83;5.20;;;19.50;99.90;;;;;;5075809;28;20036;-71
2022/05/22 08:10:46;;;;;;;9.80;5.57;;;19.70;99.90;;;;;;5073743;28;20037;-71
2022/05/22 08:13:13;;;;;;;14.35;5.80;;;19.70;99.90;;;;;;5074326;28;20443;-71
2022/05/22 08:15:40;;;;;;;10.35;4.65;;;19.80;99.90;;;;;;5074417;28;20064;-71
2022/05/22 08:18:07;;;;;;;11.63;6.75;;;19.90;99.90;;;;;;5074465;28;20380;-71
2022/05/22 08:20:36;;;;;;;12.82;6.10;;;19.90;99.90;;;;;;5074272;28;20481;-71
2022/05/22 08:23:06;;;;;;;13.18;5.78;;;20.10;99.90;;;;;;5071461;28;20036;-71
2022/05/22 08:25:32;;;;;;;13.57;6.07;;;20.30;99.90;;;;;;5076379;28;20028;-71
2022/05/22 08:27:58;;;;;;;14.23;6.05;;;20.40;99.90;;;;;;5075834;28;20032;-71
2022/05/22 08:30:27;;;;;;;14.77;5.93;;;20.50;99.90;;;;;;5074910;28;20021;-71
2022/05/22 08:32:53;;;;;;;16.67;6.85;;;20.60;99.90;;;;;;5075769;28;20020;-71
2022/05/22 08:35:26;;;;;;;18.77;6.03;;;20.70;99.90;;;;;;5070081;28;20029;-71
2022/05/22 08:37:52;;;;;;;14.60;5.00;;;20.80;99.90;;;;;;5075638;28;20024;-71
2022/05/22 08:40:21;;;;;;;10.40;5.57;;;20.90;99.90;;;;;;5074393;28;20032;-70
2022/05/22 08:42:50;;;;;;;13.23;6.50;;;21.00;99.90;;;;;;5073488;28;20503;-71
2022/05/22 08:45:19;;;;;;;11.55;5.68;;;21.10;99.90;;;;;;5073088;28;20028;-71
2022/05/22 08:48:16;;;;;;;11.95;5.50;;;21.20;99.90;;;;;;5073458;28;20025;-71
2022/05/22 08:50:44;;;;;;;12.57;6.25;;;21.40;99.90;;;;;;5074982;28;20500;-71
2022/05/22 08:53:32;;;;;;;13.30;6.20;;;21.40;99.90;;;;;;5074542;28;20469;-71
2022/05/22 08:59:13;;;;;;;14.25;6.72;;;21.60;99.90;;;;;;5076523;28;20063;-71
2022/05/22 09:02:23;;;;;;;12.82;5.40;;;21.70;99.40;;;;;;5073044;28;20068;-70
2022/05/22 09:05:07;;;;;;;8.85;5.65;;;21.90;99.90;;;;;;5063677;28;20028;-70
2022/05/22 09:07:36;;;;;;;10.40;6.47;;;22.00;98.70;;;;;;5062962;28;20021;-70
2022/05/22 09:10:20;;;;;;;13.35;6.32;;;22.10;97.80;;;;;;5081595;28;20052;-70
2022/05/22 09:13:14;;;;;;;18.27;7.35;;;22.10;98.70;;;;;;5058502;28;20044;-69
2022/05/22 09:15:51;;;;;;;13.77;7.07;;;21.90;99.00;;;;;;5059980;28;20101;-71
2022/05/22 09:18:37;;;;;;;13.20;6.28;;;22.00;98.70;;;;;;5057623;28;20465;-70
2022/05/22 09:21:12;;;;;;;9.77;5.65;;;22.30;99.10;;;;;;5057235;28;20543;-70
2022/05/22 09:23:44;;;;;;;13.13;5.75;;;22.40;99.20;;;;;;5060420;28;20065;-70
2022/05/22 09:26:23;;;;;;;12.60;6.25;;;22.50;99.10;;;;;;5063120;28;20436;-70
2022/05/22 09:28:57;;;;;;;13.30;5.35;;;22.40;99.30;;;;;;5060716;28;20682;-70
2022/05/22 09:31:41;;;;;;;10.32;6.32;;;22.50;99.10;;;;;;5064330;28;20027;-70
2022/05/22 09:34:19;;;;;;;15.23;5.60;;;22.50;96.40;;;;;;5061438;28;20027;-71
2022/05/22 09:37:04;;;;;;;11.38;5.55;;;22.40;98.30;;;;;;5061543;28;20025;-68
2022/05/22 09:39:53;;;;;;;14.35;5.30;;;22.60;98.10;;;;;;5062289;28;20093;-67
2022/05/22 09:42:56;;;;;;;14.30;6.55;;;22.60;99.20;;;;;;5062846;28;20047;-68
2022/05/22 09:46:05;;;;;;;11.82;6.05;;;22.70;96.90;;;;;;5056745;28;20829;-68
2022/05/22 09:48:52;;;;;;;12.90;6.75;;;22.90;96.90;;;;;;5060365;28;20029;-67
2022/05/22 09:51:54;;;;;;;13.70;5.90;;;23.20;96.80;;;;;;5060200;28;20021;-70
2022/05/22 09:54:58;;;;;;;11.40;5.45;;;23.40;96.90;;;;;;5057227;28;20056;-69
2022/05/22 09:58:02;;;;;;;11.80;6.82;;;23.40;98.40;;;;;;5058344;28;20031;-69
2022/05/22 10:00:56;;;;;;;8.75;6.95;;;23.30;95.90;;;;;;5056774;28;20520;-69
2022/05/22 10:03:34;;;;;;;12.57;7.78;;;23.00;97.30;;;;;;5056568;28;20037;-70
2022/05/22 10:06:18;;;;;;;19.25;7.18;;;23.10;95.80;;;;;;5056508;28;20025;-70
2022/05/22 10:09:05;;;;;;;14.60;7.93;;;23.50;95.50;;;;;;5061025;28;20135;-70
2022/05/22 10:11:58;;;;;;;13.23;7.10;;;23.80;95.60;;;;;;5069056;28;20025;-70
2022/05/22 10:14:54;;;;;;;14.63;6.95;;;23.90;95.10;;;;;;5058013;28;20029;-71
2022/05/22 10:17:29;;;;;;;10.77;6.95;;;24.10;95.40;;;;;;5071286;28;20052;-70
2022/05/22 10:20:22;;;;;;;11.85;7.03;;;24.00;94.40;;;;;;5058349;28;20111;-70
2022/05/22 10:23:06;;;;;;;13.45;7.75;;;24.00;96.30;;;;;;5062267;28;20831;-71
2022/05/22 10:25:50;;;;;;;13.48;6.72;;;23.60;95.40;;;;;;5076145;28;20024;-71
2022/05/22 10:28:22;;;;;;;9.65;7.35;;;23.10;96.50;;;;;;5072309;28;20033;-71
2022/05/22 10:31:06;;;;;;;12.07;6.70;;;22.90;95.40;;;;;;5075918;28;20020;-71
2022/05/22 10:33:58;;;;;;;11.55;7.10;;;23.00;96.50;;;;;;5043576;28;20017;-71
2022/05/22 10:36:30;;;;;;;12.07;7.00;;;23.50;95.80;;;;;;5065850;28;20039;-71
2022/05/22 10:38:58;;;;;;;10.85;6.22;;;23.90;94.70;;;;;;5068617;28;20044;-71
2022/05/22 10:44:22;;;;;;;10.88;5.20;;;24.00;94.90;;;;;;5072687;28;20032;-72
2022/05/22 10:46:51;;;;;;;7.80;4.38;;;24.20;94.30;;;;;;5072595;28;20049;-71
2022/05/22 10:49:18;;;;;;;11.73;5.40;;;24.50;96.30;;;;;;5075547;28;20107;-71
2022/05/22 10:51:58;;;;;;;8.15;4.43;;;24.60;94.20;;;;;;5071649;28;20086;-71
2022/05/22 10:54:29;;;;;;;10.32;5.70;;;24.90;95.40;;;;;;5067316;28;20664;-71
2022/05/22 10:57:06;;;;;;;10.07;5.38;;;24.70;92.10;;;;;;5068702;28;20024;-73
2022/05/22 10:59:32;;;;;;;9.07;5.53;;;24.70;92.40;;;;;;5072321;28;20025;-72
2022/05/22 11:02:04;;;;;;;10.80;5.05;;;24.70;91.10;;;;;;5072853;28;20477;-73
2022/05/22 11:04:38;;;;;;;7.43;4.93;;;24.90;92.10;;;;;;5072313;28;20033;-72
2022/05/22 11:07:06;;;;;;;6.90;4.88;;;24.90;93.20;;;;;;5074799;28;20404;-73
2022/05/22 11:09:35;;;;;;;13.57;5.10;;;24.50;91.00;;;;;;5071320;28;20162;-73
2022/05/22 11:12:09;;;;;;;13.32;5.82;;;24.80;93.90;;;;;;5076565;28;20468;-73
2022/05/22 11:14:35;;;;;;;10.27;5.57;;;24.90;91.30;;;;;;5076955;28;20119;-73
2022/05/22 11:17:11;;;;;;;7.05;5.25;;;25.10;93.40;;;;;;5076741;28;20037;-73
2022/05/22 11:19:40;;;;;;;11.85;5.60;;;25.10;94.00;;;;;;5073222;28;20020;-73
2022/05/22 11:22:30;;;;;;;14.25;6.47;;;25.00;91.30;;;;;;5076414;28;20044;-73
2022/05/22 11:25:29;;;;;;;8.65;5.03;;;25.10;91.70;;;;;;5075704;28;20036;-75
2022/05/22 11:28:19;;;;;;;7.85;4.78;;;25.10;93.30;;;;;;5074793;28;20384;-75
2022/05/22 11:31:24;;;;;;;7.88;4.68;;;25.10;91.70;;;;;;5076969;28;20392;-75
2022/05/22 11:34:03;;;;;;;10.82;5.68;;;25.20;92.80;;;;;;5068709;28;20036;-72
2022/05/22 11:36:53;;;;;;;10.07;5.90;;;24.80;91.90;;;;;;5073085;28;21074;-72
2022/05/22 11:39:28;;;;;;;11.43;5.35;;;24.60;91.70;;;;;;5069025;28;20025;-72
2022/05/22 11:42:10;;;;;;;11.68;5.75;;;24.70;92.50;;;;;;5074597;28;20039;-73
2022/05/22 11:45:09;;;;;;;8.43;5.50;;;24.80;91.60;;;;;;5076197;28;20029;-73
2022/05/22 11:48:22;;;;;;;8.93;5.03;;;24.80;91.80;;;;;;5074589;28;20024;-72
2022/05/22 11:50:57;;;;;;;10.90;4.78;;;24.90;92.90;;;;;;5073931;28;20036;-73
2022/05/22 11:54:00;;;;;;;9.55;5.00;;;25.20;90.40;;;;;;5070058;28;20029;-73
2022/05/22 11:56:38;;;;;;;8.77;5.28;;;25.20;92.00;;;;;;5075377;28;20029;-72
2022/05/22 11:59:47;;;;;;;8.95;5.13;;;25.20;91.20;;;;;;5072511;28;20025;-73
2022/05/22 12:02:17;;;;;;;11.23;5.28;;;25.30;91.30;;;;;;5068471;28;20088;-74
2022/05/22 12:05:04;;;;;;;8.45;6.13;;;25.60;92.10;;;;;;5072774;28;20076;-74
2022/05/22 12:07:38;;;;;;;12.05;5.35;;;25.60;89.50;;;;;;5072442;28;20031;-73
2022/05/22 12:10:20;;;;;;;8.18;5.55;;;25.40;90.60;;;;;;5073037;28;20029;-73
2022/05/22 12:12:59;;;;;;;10.80;5.57;;;25.60;91.40;;;;;;5075627;28;20028;-73
2022/05/22 12:15:31;;;;;;;9.23;6.10;;;25.80;90.10;;;;;;5071232;28;20029;-73
2022/05/22 12:17:59;;;;;;;;;;;25.60;89.10;;;;;;5070763;28;20028;-73
2022/05/22 12:20:42;;;;;;;11.60;5.18;;;25.40;89.90;;;;;;5068610;28;19912;-72
2022/05/22 12:23:12;;;;;;;8.15;4.95;;;25.60;89.60;;;;;;5070994;28;20040;-72
2022/05/22 12:26:06;;;;;;;9.40;5.70;;;25.80;91.10;;;;;;5074234;28;20077;-73
2022/05/22 12:28:59;;;;;;;10.00;4.72;;;25.90;91.50;;;;;;5071391;28;20037;-72
2022/05/22 12:31:41;;;;;;;10.15;4.55;;;25.80;90.30;;;;;;5070830;28;20389;-72
2022/05/22 12:34:16;;;;;;;10.53;5.03;;;26.00;92.10;;;;;;5070246;28;20031;-73
2022/05/22 12:36:50;;;;;;;12.10;5.32;;;25.90;91.50;;;;;;5073350;28;20021;-71
2022/05/22 12:39:18;;;;;;;10.43;5.20;;;25.40;90.60;;;;;;5074134;28;20044;-72
2022/05/22 12:41:52;;;;;;;11.20;5.45;;;25.50;90.10;;;;;;5074800;28;20032;-73
2022/05/22 12:44:18;;;;;;;11.35;5.10;;;25.70;90.00;;;;;;5068854;28;20024;-73
2022/05/22 12:46:45;;;;;;;9.75;5.10;;;25.90;92.60;;;;;;5074856;28;20381;-73
2022/05/22 12:49:28;;;;;;;8.82;4.65;;;25.90;87.40;;;;;;5073542;28;20538;-73
2022/05/22 12:52:14;;;;;;;9.13;4.50;;;25.90;90.90;;;;;;5074053;28;20039;-73
2022/05/22 12:54:40;;;;;;;7.75;4.32;;;26.10;90.50;;;;;;5074832;28;20024;-73
2022/05/22 12:57:18;;;;;;;11.13;5.22;;;25.90;89.50;;;;;;5075770;28;20031;-73
2022/05/22 12:59:55;;;;;;;8.63;3.97;;;26.00;88.60;;;;;;5074535;28;20044;-73
2022/05/22 13:02:47;;;;;;;10.82;4.20;;;26.10;91.00;;;;;;5073333;28;20033;-73
2022/05/22 13:05:26;;;;;;;8.00;3.58;;;26.20;89.30;;;;;;5069072;28;20067;-73
2022/05/22 13:07:52;;;;;;;9.38;4.82;;;26.50;90.10;;;;;;5070034;28;20024;-73
2022/05/22 13:10:34;;;;;;;10.38;4.47;;;26.40;87.60;;;;;;5061892;28;20036;-73
2022/05/22 13:13:03;;;;;;;10.43;4.68;;;26.20;89.70;;;;;;5061610;28;20025;-72